Time;durP1;ratioP1;P1;durP2;ratioP2;P2;SDS_P1;SDS_P2;PMS_P1;PMS_P2;Temp;Humidity;BMP_temperature;BMP_pressure;BME280_temperature;BME280_humidity;BME280_pressure;Samples;Min_cycle;Max_cycle;Signal;HPM_P1;HPM_P2
2023/09/15 00:00:45;;;;;;;;;;;13.70;82.90;;;;;;5024746;28;19912;-91
2023/09/15 00:03:11;;;;;;;;;;;13.60;83.60;;;;;;5029904;28;19966;-90
2023/09/15 00:05:37;;;;;;;;;;;13.60;83.50;;;;;;5029713;28;19912;-91
2023/09/15 00:08:04;;;;;;;;;;;13.60;83.90;;;;;;5021186;28;19917;-90
2023/09/15 00:10:30;;;;;;;;;;;13.50;84.00;;;;;;5025245;28;19949;-90
2023/09/15 00:12:58;;;;;;;;;;;13.60;83.90;;;;;;5022366;28;19962;-91
2023/09/15 00:15:24;;;;;;;;;;;13.60;83.70;;;;;;5031120;28;19919;-91
2023/09/15 00:17:49;;;;;;;;;;;13.70;83.70;;;;;;5020551;28;19913;-90
2023/09/15 00:20:16;;;;;;;;;;;13.80;82.50;;;;;;5015919;28;20400;-90
2023/09/15 00:22:42;;;;;;;;;;;13.60;82.50;;;;;;5040649;28;19913;-90
2023/09/15 00:25:08;;;;;;;;;;;13.60;83.30;;;;;;5034363;28;19927;-90
2023/09/15 00:27:34;;;;;;;;;;;13.60;83.00;;;;;;5028774;28;20297;-91
2023/09/15 00:29:59;;;;;;;;;;;13.70;81.80;;;;;;5042691;28;19970;-91
2023/09/15 00:32:25;;;;;;;;;;;13.60;82.00;;;;;;5022831;28;19912;-92
2023/09/15 00:34:51;;;;;;;;;;;13.60;82.00;;;;;;5019433;28;20023;-90
2023/09/15 00:37:16;;;;;;;;;;;13.70;81.30;;;;;;5016242;28;19928;-90
2023/09/15 00:39:42;;;;;;;;;;;13.60;82.60;;;;;;5025570;28;19921;-91
2023/09/15 00:42:07;;;;;;;;;;;13.50;82.40;;;;;;5025923;28;19957;-91
2023/09/15 00:44:34;;;;;;;;;;;13.50;81.70;;;;;;5037167;28;20334;-90
2023/09/15 00:46:59;;;;;;;;;;;13.50;82.60;;;;;;5014637;28;19913;-90
2023/09/15 00:49:25;;;;;;;;;;;13.40;82.70;;;;;;5026240;28;19908;-91
2023/09/15 00:51:50;;;;;;;;;;;13.30;82.70;;;;;;5039742;28;20268;-91
2023/09/15 00:54:16;;;;;;;;;;;13.40;82.20;;;;;;5017600;28;19944;-90
2023/09/15 00:56:41;;;;;;;;;;;13.40;82.50;;;;;;5030515;28;20369;-91
2023/09/15 00:59:08;;;;;;;;;;;13.40;82.60;;;;;;5065656;28;19920;-90
2023/09/15 01:01:34;;;;;;;;;;;13.50;81.20;;;;;;5032558;28;20039;-89
2023/09/15 01:03:59;;;;;;;;;;;13.50;81.60;;;;;;5031243;28;19962;-91
2023/09/15 01:06:25;;;;;;;;;;;13.50;81.40;;;;;;5020523;28;19920;-91
2023/09/15 01:08:51;;;;;;;;;;;13.50;81.00;;;;;;5019742;28;19947;-91
2023/09/15 01:11:17;;;;;;;;;;;13.50;81.10;;;;;;5018696;28;19913;-91
2023/09/15 01:13:42;;;;;;;;;;;13.50;81.10;;;;;;5030351;28;20070;-92
2023/09/15 01:16:28;;;;;;;;;;;13.40;81.30;;;;;;5050159;28;19943;-90
2023/09/15 01:19:03;;;;;;;;;;;13.30;81.60;;;;;;5057941;28;19913;-89
2023/09/15 01:21:36;;;;;;;;;;;13.30;81.40;;;;;;5035937;28;19913;-90
2023/09/15 01:24:20;;;;;;;;;;;13.10;81.80;;;;;;5015846;28;19968;-91
2023/09/15 01:26:58;;;;;;;;;;;13.10;82.70;;;;;;5033807;28;20367;-90
2023/09/15 01:29:30;;;;;;;;;;;13.10;81.90;;;;;;5039982;28;19913;-89
2023/09/15 01:31:56;;;;;;;;;;;13.00;82.30;;;;;;5022287;28;19952;-91
2023/09/15 01:34:22;;;;;;;;;;;12.90;83.00;;;;;;5037851;28;19919;-91
2023/09/15 01:36:47;;;;;;;;;;;12.90;83.00;;;;;;5035185;28;20497;-90
2023/09/15 01:39:13;;;;;;;;;;;12.80;83.30;;;;;;5040113;28;19913;-90
2023/09/15 01:41:38;;;;;;;;;;;12.80;83.20;;;;;;5038545;28;19924;-90
2023/09/15 01:44:04;;;;;;;;;;;12.80;83.20;;;;;;5029251;28;19913;-90
2023/09/15 01:46:29;;;;;;;;;;;12.80;83.90;;;;;;5033594;28;19935;-89
2023/09/15 01:48:55;;;;;;;;;;;12.80;83.10;;;;;;5019959;28;19916;-89
2023/09/15 01:51:22;;;;;;;;;;;12.80;82.70;;;;;;5001083;28;20064;-90
2023/09/15 01:53:50;;;;;;;;;;;12.80;82.60;;;;;;5011099;28;20402;-90
2023/09/15 01:56:17;;;;;;;;;;;12.80;82.00;;;;;;5048642;28;19956;-90
2023/09/15 01:58:42;;;;;;;;;;;12.90;81.90;;;;;;5022441;28;20437;-91
2023/09/15 02:01:08;;;;;;;;;;;12.80;81.80;;;;;;5024831;28;19911;-90
2023/09/15 02:03:33;;;;;;;;;;;12.80;81.70;;;;;;5021989;28;19917;-90
2023/09/15 02:06:03;;;;;;;;;;;12.60;82.20;;;;;;5017699;28;20329;-89
2023/09/15 02:08:28;;;;;;;;;;;12.50;83.00;;;;;;5017030;28;19913;-90
2023/09/15 02:10:54;;;;;;;;;;;12.50;84.00;;;;;;5040110;28;20448;-90
2023/09/15 02:13:19;;;;;;;;;;;12.50;84.30;;;;;;5028474;28;19913;-90
2023/09/15 02:15:45;;;;;;;;;;;12.50;84.50;;;;;;5025862;28;19932;-90
2023/09/15 02:18:13;;;;;;;;;;;12.60;84.30;;;;;;5020994;28;20302;-92
2023/09/15 02:20:40;;;;;;;;;;;12.60;83.40;;;;;;5046216;28;19963;-91
2023/09/15 02:23:06;;;;;;;;;;;12.60;83.40;;;;;;5021748;28;19932;-91
2023/09/15 02:25:34;;;;;;;;;;;12.70;82.60;;;;;;5030315;28;20405;-91
2023/09/15 02:28:02;;;;;;;;;;;12.60;82.60;;;;;;5032099;28;19910;-90
2023/09/15 02:30:27;;;;;;;;;;;12.50;83.00;;;;;;5022408;28;19955;-90
2023/09/15 02:32:53;;;;;;;;;;;12.50;82.90;;;;;;5021724;28;19913;-90
2023/09/15 02:35:19;;;;;;;;;;;12.40;83.40;;;;;;5030682;28;19920;-89
2023/09/15 02:37:47;;;;;;;;;;;12.30;83.70;;;;;;5030456;28;19913;-90
2023/09/15 02:40:14;;;;;;;;;;;12.40;83.30;;;;;;5021952;28;19940;-89
2023/09/15 02:42:40;;;;;;;;;;;12.40;83.10;;;;;;5029920;28;19908;-90
2023/09/15 02:45:05;;;;;;;;;;;12.30;84.10;;;;;;5026028;28;19920;-90
2023/09/15 02:47:31;;;;;;;;;;;12.30;83.90;;;;;;5018594;28;19962;-90
2023/09/15 02:49:56;;;;;;;;;;;12.30;84.10;;;;;;5024093;28;19952;-90
2023/09/15 02:52:22;;;;;;;;;;;12.20;83.80;;;;;;5033241;28;19913;-90
2023/09/15 02:54:47;;;;;;;;;;;12.10;84.20;;;;;;5034575;28;19913;-91
2023/09/15 02:57:13;;;;;;;;;;;12.30;84.70;;;;;;5036697;28;19909;-90
2023/09/15 02:59:38;;;;;;;;;;;12.30;84.30;;;;;;5029902;28;19919;-90
2023/09/15 03:02:12;;;;;;;;;;;12.30;83.30;;;;;;5033462;28;19970;-90
2023/09/15 03:04:38;;;;;;;;;;;12.30;83.00;;;;;;5034817;28;19924;-91
2023/09/15 03:07:04;;;;;;;;;;;12.30;83.00;;;;;;5020918;28;20370;-91
2023/09/15 03:09:32;;;;;;;;;;;12.10;83.80;;;;;;5022212;28;20012;-90
2023/09/15 03:11:58;;;;;;;;;;;12.30;83.10;;;;;;5011604;28;19919;-90
2023/09/15 03:14:23;;;;;;;;;;;12.10;84.00;;;;;;5029734;28;20023;-90
2023/09/15 03:16:49;;;;;;;;;;;12.10;83.90;;;;;;5016874;28;20460;-90
2023/09/15 03:19:14;;;;;;;;;;;12.10;84.20;;;;;;5024710;28;19917;-90
2023/09/15 03:21:40;;;;;;;;;;;12.10;84.40;;;;;;5015217;28;19928;-90
2023/09/15 03:24:06;;;;;;;;;;;12.10;84.40;;;;;;5019112;28;19922;-90
2023/09/15 03:26:32;;;;;;;;;;;12.10;84.10;;;;;;5025968;28;19909;-89
2023/09/15 03:28:57;;;;;;;;;;;12.10;84.20;;;;;;5015558;28;19909;-88
2023/09/15 03:31:23;;;;;;;;;;;12.10;84.50;;;;;;5021908;28;20112;-89
2023/09/15 03:33:48;;;;;;;;;;;12.00;84.50;;;;;;5022267;28;19916;-89
2023/09/15 03:36:14;;;;;;;;;;;12.10;83.60;;;;;;5034103;28;19919;-90
2023/09/15 03:38:40;;;;;;;;;;;12.10;84.70;;;;;;5029240;28;19948;-89
2023/09/15 03:41:06;;;;;;;;;;;12.00;84.20;;;;;;5027597;28;20317;-90
2023/09/15 03:43:32;;;;;;;;;;;12.00;83.70;;;;;;5028180;28;20015;-90
2023/09/15 03:45:58;;;;;;;;;;;12.10;83.80;;;;;;5052251;28;19916;-89
2023/09/15 03:48:24;;;;;;;;;;;12.00;83.90;;;;;;5029484;28;19919;-90
2023/09/15 03:50:50;;;;;;;;;;;12.00;83.70;;;;;;5037573;28;19908;-90
2023/09/15 03:53:15;;;;;;;;;;;12.10;83.00;;;;;;5034782;28;19917;-90
2023/09/15 03:55:40;;;;;;;;;;;12.00;83.60;;;;;;5020309;28;20035;-89
2023/09/15 03:58:06;;;;;;;;;;;12.00;84.30;;;;;;5022585;28;19932;-90
2023/09/15 04:00:31;;;;;;;;;;;12.00;84.30;;;;;;5023038;28;19917;-90
2023/09/15 04:02:57;;;;;;;;;;;11.90;84.70;;;;;;5024498;28;19913;-90
2023/09/15 04:05:22;;;;;;;;;;;11.90;85.00;;;;;;5021567;28;20294;-90
2023/09/15 04:07:48;;;;;;;;;;;11.90;84.80;;;;;;5007894;28;19910;-91
2023/09/15 04:10:13;;;;;;;;;;;12.00;84.00;;;;;;5013270;28;19929;-90
2023/09/15 04:12:42;;;;;;;;;;;11.90;84.00;;;;;;5019595;28;19955;-90
2023/09/15 04:15:09;;;;;;;;;;;12.00;83.40;;;;;;5032739;28;19913;-89
2023/09/15 04:17:34;;;;;;;;;;;11.90;83.40;;;;;;5014888;28;19956;-90
2023/09/15 04:20:00;;;;;;;;;;;11.70;83.90;;;;;;5027205;28;20329;-92
2023/09/15 04:22:26;;;;;;;;;;;11.80;84.10;;;;;;5013707;28;19920;-91
2023/09/15 04:24:52;;;;;;;;;;;11.70;83.50;;;;;;5030984;28;19978;-91
2023/09/15 04:27:18;;;;;;;;;;;11.70;84.00;;;;;;5034079;28;19921;-89
2023/09/15 04:29:54;;;;;;;;;;;11.70;83.30;;;;;;5010954;28;20660;-90
2023/09/15 04:32:19;;;;;;;;;;;11.60;83.60;;;;;;5013344;28;20394;-90
2023/09/15 04:34:45;;;;;;;;;;;11.60;84.30;;;;;;5024540;28;19955;-90
2023/09/15 04:37:10;;;;;;;;;;;11.60;84.30;;;;;;5029105;28;20000;-89
2023/09/15 04:39:36;;;;;;;;;;;11.60;85.20;;;;;;5015287;28;19921;-90
2023/09/15 04:42:01;;;;;;;;;;;11.60;85.30;;;;;;5013162;28;20339;-90
2023/09/15 04:44:27;;;;;;;;;;;11.70;84.60;;;;;;5019538;28;20405;-90
2023/09/15 04:46:52;;;;;;;;;;;11.70;83.80;;;;;;5020600;28;20015;-91
2023/09/15 04:49:18;;;;;;;;;;;11.60;84.30;;;;;;5017974;28;19920;-90
2023/09/15 04:51:43;;;;;;;;;;;11.60;85.00;;;;;;5015555;28;19914;-90
2023/09/15 04:54:09;;;;;;;;;;;11.60;84.50;;;;;;5021733;28;19971;-90
2023/09/15 04:56:34;;;;;;;;;;;11.80;83.60;;;;;;5012750;28;20032;-90
2023/09/15 04:59:00;;;;;;;;;;;11.70;83.20;;;;;;5029105;28;19964;-88
2023/09/15 05:01:25;;;;;;;;;;;11.80;82.90;;;;;;5028570;28;19913;-91
2023/09/15 05:03:51;;;;;;;;;;;11.60;83.70;;;;;;5015946;28;19923;-89
2023/09/15 05:06:16;;;;;;;;;;;11.60;83.80;;;;;;5044292;28;20011;-89
2023/09/15 05:08:42;;;;;;;;;;;11.60;84.10;;;;;;5033641;28;19943;-90
2023/09/15 05:11:08;;;;;;;;;;;11.60;83.90;;;;;;5017983;28;20405;-88
2023/09/15 05:13:33;;;;;;;;;;;11.60;83.60;;;;;;5022182;28;19913;-88
2023/09/15 05:15:59;;;;;;;;;;;11.60;82.90;;;;;;5037847;28;19978;-91
2023/09/15 05:18:24;;;;;;;;;;;11.60;82.90;;;;;;5017426;28;20060;-90
2023/09/15 05:20:50;;;;;;;;;;;11.60;83.30;;;;;;5011996;28;19913;-90
2023/09/15 05:23:15;;;;;;;;;;;11.50;83.50;;;;;;5030829;28;20393;-89
2023/09/15 05:25:41;;;;;;;;;;;11.50;84.50;;;;;;5016460;28;19913;-89
2023/09/15 05:28:06;;;;;;;;;;;11.50;84.40;;;;;;5016281;28;19924;-88
2023/09/15 05:30:32;;;;;;;;;;;11.50;85.00;;;;;;5010347;28;20390;-89
2023/09/15 05:32:57;;;;;;;;;;;11.50;85.30;;;;;;5012194;28;19913;-87
2023/09/15 05:35:23;;;;;;;;;;;11.40;85.30;;;;;;5019617;28;20337;-89
2023/09/15 05:37:49;;;;;;;;;;;11.50;85.80;;;;;;5020094;28;19912;-88
2023/09/15 05:40:14;;;;;;;;;;;11.50;85.70;;;;;;5019382;28;19917;-88
2023/09/15 05:42:40;;;;;;;;;;;11.50;85.40;;;;;;5028963;28;20442;-88
2023/09/15 05:45:05;;;;;;;;;;;11.60;85.70;;;;;;5057064;28;19917;-87
2023/09/15 05:47:31;;;;;;;;;;;11.70;85.20;;;;;;5043354;28;19975;-88
2023/09/15 05:50:00;;;;;;;;;;;11.80;84.70;;;;;;5055300;28;19901;-89
2023/09/15 05:52:26;;;;;;;;;;;11.90;84.20;;;;;;5051018;28;19916;-88
2023/09/15 05:54:51;;;;;;;;;;;11.90;84.00;;;;;;5052413;28;19913;-89
2023/09/15 05:57:17;;;;;;;;;;;11.90;83.90;;;;;;5030821;28;21403;-88
2023/09/15 05:59:46;;;;;;;;;;;11.90;84.20;;;;;;5028146;28;19913;-87
2023/09/15 06:02:13;;;;;;;;;;;11.80;85.00;;;;;;5020333;28;19921;-89
2023/09/15 06:04:42;;;;;;;;;;;11.80;85.70;;;;;;5042561;28;19921;-88
2023/09/15 06:07:07;;;;;;;;;;;11.80;85.70;;;;;;5027720;28;19916;-88
2023/09/15 06:09:33;;;;;;;;;;;11.80;85.70;;;;;;5041424;28;19920;-89
2023/09/15 06:11:58;;;;;;;;;;;11.80;85.90;;;;;;5020234;28;19944;-91
2023/09/15 06:14:27;;;;;;;;;;;11.90;86.40;;;;;;5031356;28;19981;-96
2023/09/15 06:16:53;;;;;;;;;;;12.00;86.40;;;;;;5074424;23;20353;-82
2023/09/15 06:19:19;;;;;;;;;;;12.10;86.80;;;;;;5031973;28;19913;-87
2023/09/15 06:21:44;;;;;;;;;;;12.20;86.30;;;;;;5020304;28;20028;-87
2023/09/15 06:27:07;;;;;;;;;;;12.20;86.70;;;;;;5013781;28;19944;-88
2023/09/15 06:29:33;;;;;;;;;;;12.20;86.80;;;;;;5018594;28;19920;-88
2023/09/15 06:31:59;;;;;;;;;;;12.20;87.00;;;;;;4997723;28;19909;-87
2023/09/15 06:34:24;;;;;;;;;;;12.30;87.10;;;;;;5016377;28;19924;-92
2023/09/15 06:36:50;;;;;;;;;;;12.40;87.40;;;;;;5013412;28;19913;-88
2023/09/15 06:39:20;;;;;;;;;;;12.50;87.50;;;;;;5026103;28;19921;-88
2023/09/15 06:41:46;;;;;;;;;;;12.50;87.40;;;;;;4996538;28;19914;-88
2023/09/15 06:44:11;;;;;;;;;;;12.50;87.00;;;;;;5002973;28;19925;-89
2023/09/15 06:46:36;;;;;;;;;;;12.50;87.10;;;;;;4994291;28;19917;-92
2023/09/15 06:49:02;;;;;;;;;;;12.50;86.70;;;;;;5010387;28;20454;-88
2023/09/15 06:51:28;;;;;;;;;;;12.50;86.60;;;;;;5016963;28;19913;-89
2023/09/15 06:53:53;;;;;;;;;;;12.50;86.40;;;;;;5016174;28;19914;-90
2023/09/15 06:56:19;;;;;;;;;;;12.50;86.10;;;;;;5014447;28;19968;-89
2023/09/15 06:58:44;;;;;;;;;;;12.60;86.10;;;;;;5003631;28;19914;-89
2023/09/15 07:01:10;;;;;;;;;;;12.60;86.00;;;;;;5008518;28;19917;-90
2023/09/15 07:03:35;;;;;;;;;;;12.70;86.30;;;;;;4992695;28;20415;-88
2023/09/15 07:06:01;;;;;;;;;;;12.80;86.40;;;;;;5014621;28;20363;-89
2023/09/15 07:08:27;;;;;;;;;;;12.80;86.10;;;;;;4994652;28;20558;-89
2023/09/15 07:10:52;;;;;;;;;;;12.90;86.20;;;;;;5026710;28;20430;-90
2023/09/15 07:13:18;;;;;;;;;;;13.00;86.30;;;;;;4998815;28;19921;-84
2023/09/15 07:15:44;;;;;;;;;;;13.10;86.10;;;;;;5025953;28;19999;-86
2023/09/15 07:18:09;;;;;;;;;;;13.10;86.10;;;;;;5016093;28;19917;-84
2023/09/15 07:20:35;;;;;;;;;;;13.10;86.20;;;;;;5031209;28;19971;-85
2023/09/15 07:23:00;;;;;;;;;;;13.20;86.40;;;;;;5030034;28;19917;-85
2023/09/15 07:25:26;;;;;;;;;;;13.20;86.60;;;;;;5027016;28;19921;-85
2023/09/15 07:27:51;;;;;;;;;;;13.30;86.80;;;;;;5021057;28;19918;-84
2023/09/15 07:30:16;;;;;;;;;;;13.30;86.60;;;;;;5032754;28;20398;-86
2023/09/15 07:32:42;;;;;;;;;;;13.30;86.70;;;;;;5025453;28;20360;-85
2023/09/15 07:35:09;;;;;;;;;;;13.50;86.40;;;;;;4992208;28;20294;-86
2023/09/15 07:37:35;;;;;;;;;;;13.60;86.20;;;;;;4992290;28;19917;-85
2023/09/15 07:40:01;;;;;;;;;;;13.60;86.10;;;;;;4997495;28;19913;-85
2023/09/15 07:42:26;;;;;;;;;;;13.70;86.20;;;;;;5014042;28;19920;-85
2023/09/15 07:44:52;;;;;;;;;;;13.80;85.70;;;;;;5031490;28;19921;-85
2023/09/15 07:47:17;;;;;;;;;;;14.00;85.60;;;;;;5040933;28;19922;-85
2023/09/15 07:49:43;;;;;;;;;;;14.00;84.10;;;;;;5013764;28;19913;-84
2023/09/15 07:52:08;;;;;;;;;;;14.10;83.70;;;;;;5028451;28;19945;-87
2023/09/15 07:54:35;;;;;;;;;;;14.10;83.40;;;;;;5014853;28;19921;-88
2023/09/15 07:57:00;;;;;;;;;;;14.20;84.10;;;;;;5029172;28;19917;-88
2023/09/15 07:59:26;;;;;;;;;;;14.30;84.10;;;;;;5002706;28;19936;-88
2023/09/15 08:01:51;;;;;;;;;;;14.40;83.30;;;;;;4992962;28;19960;-85
2023/09/15 08:04:17;;;;;;;;;;;14.50;83.00;;;;;;4999452;28;20290;-85
2023/09/15 08:06:42;;;;;;;;;;;14.60;82.70;;;;;;5005245;28;20011;-85
2023/09/15 08:09:08;;;;;;;;;;;14.60;82.60;;;;;;5026428;28;19921;-85
2023/09/15 08:11:37;;;;;;;;;;;14.70;83.10;;;;;;5017049;28;19960;-84
2023/09/15 08:14:03;;;;;;;;;;;14.80;83.80;;;;;;5000785;28;20646;-84
2023/09/15 08:16:31;;;;;;;;;;;14.80;83.60;;;;;;5022296;28;20008;-84
2023/09/15 08:18:58;;;;;;;;;;;14.90;83.50;;;;;;5000187;28;19920;-84
2023/09/15 08:21:26;;;;;;;;;;;15.00;83.30;;;;;;5022776;28;20070;-84
2023/09/15 08:23:52;;;;;;;;;;;15.10;82.80;;;;;;5015046;28;19923;-84
2023/09/15 08:26:17;;;;;;;;;;;15.20;83.00;;;;;;5001449;28;19989;-85
2023/09/15 08:28:43;;;;;;;;;;;15.40;82.10;;;;;;5006057;28;19913;-84
2023/09/15 08:31:11;;;;;;;;;;;15.40;81.10;;;;;;5005328;28;19917;-85
2023/09/15 08:33:37;;;;;;;;;;;15.50;81.70;;;;;;4996737;28;19913;-85
2023/09/15 08:36:03;;;;;;;;;;;15.60;81.20;;;;;;5000635;28;19918;-85
2023/09/15 08:38:31;;;;;;;;;;;15.70;81.10;;;;;;5017845;28;19914;-85
2023/09/15 08:41:12;;;;;;;;;;;15.80;81.10;;;;;;5004813;28;19915;-85
2023/09/15 08:43:37;;;;;;;;;;;16.00;80.20;;;;;;5025300;28;19940;-86
2023/09/15 08:46:05;;;;;;;;;;;16.10;79.60;;;;;;4994726;28;20310;-88
2023/09/15 08:48:34;;;;;;;;;;;16.10;79.90;;;;;;5014937;28;19913;-86
2023/09/15 08:51:02;;;;;;;;;;;16.20;79.60;;;;;;4996217;28;19922;-88
2023/09/15 08:53:28;;;;;;;;;;;16.20;80.20;;;;;;4996004;28;20386;-86
2023/09/15 08:55:54;;;;;;;;;;;16.30;79.70;;;;;;5013568;28;20024;-86
2023/09/15 08:58:20;;;;;;;;;;;16.30;78.90;;;;;;5010990;28;19919;-87
2023/09/15 09:00:46;;;;;;;;;;;16.50;78.90;;;;;;4992820;28;19914;-87
2023/09/15 09:03:15;;;;;;;;;;;16.60;78.70;;;;;;4998982;28;19914;-87
2023/09/15 09:05:46;;;;;;;;;;;16.70;78.50;;;;;;5002656;28;19941;-88
2023/09/15 09:08:12;;;;;;;;;;;16.80;77.70;;;;;;4994069;28;19952;-86
2023/09/15 09:10:38;;;;;;;;;;;17.00;76.80;;;;;;5005915;28;19917;-86
2023/09/15 09:13:03;;;;;;;;;;;17.00;77.00;;;;;;5023100;28;20033;-86
2023/09/15 09:15:31;;;;;;;;;;;16.90;76.60;;;;;;4998355;28;19913;-86
2023/09/15 09:17:57;;;;;;;;;;;17.10;76.00;;;;;;5001911;28;19917;-86
2023/09/15 09:20:24;;;;;;;;;;;17.20;73.50;;;;;;5019674;28;19921;-86
2023/09/15 09:22:50;;;;;;;;;;;17.20;74.40;;;;;;5006200;28;20287;-85
2023/09/15 09:25:24;;;;;;;;;;;17.30;74.10;;;;;;5003554;28;19941;-85
2023/09/15 09:27:49;;;;;;;;;;;17.30;74.80;;;;;;5017330;28;19910;-91
2023/09/15 09:30:15;;;;;;;;;;;17.30;72.90;;;;;;5032449;28;19943;-88
2023/09/15 09:32:40;;;;;;;;;;;17.60;72.90;;;;;;5015552;28;19913;-89
2023/09/15 09:35:06;;;;;;;;;;;17.60;72.50;;;;;;5010497;28;19925;-87
2023/09/15 09:37:31;;;;;;;;;;;17.60;72.50;;;;;;4996647;28;19913;-85
2023/09/15 09:39:58;;;;;;;;;;;17.50;72.90;;;;;;5016546;28;20119;-84
2023/09/15 09:42:24;;;;;;;;;;;17.50;72.60;;;;;;5031796;28;19917;-85
2023/09/15 09:44:51;;;;;;;;;;;17.50;71.10;;;;;;5014732;28;20022;-86
2023/09/15 09:47:17;;;;;;;;;;;17.60;71.60;;;;;;5020637;28;19913;-85
2023/09/15 09:49:43;;;;;;;;;;;17.70;71.00;;;;;;4998124;28;19910;-87
2023/09/15 09:52:09;;;;;;;;;;;17.70;70.20;;;;;;5021627;28;19917;-86
2023/09/15 09:54:34;;;;;;;;;;;17.70;69.70;;;;;;5001283;28;19913;-88
2023/09/15 09:57:01;;;;;;;;;;;18.00;69.50;;;;;;5021009;28;19913;-87
2023/09/15 09:59:29;;;;;;;;;;;18.00;68.70;;;;;;5016461;28;20367;-87
2023/09/15 10:01:55;;;;;;;;;;;17.90;69.00;;;;;;4999217;28;19980;-85
2023/09/15 10:04:21;;;;;;;;;;;18.00;69.30;;;;;;5027129;28;20399;-85
2023/09/15 10:06:47;;;;;;;;;;;18.00;68.70;;;;;;5027308;28;19913;-88
2023/09/15 10:09:14;;;;;;;;;;;17.90;67.60;;;;;;4998563;28;19917;-86
2023/09/15 10:11:39;;;;;;;;;;;18.00;67.20;;;;;;5026877;28;19940;-85
2023/09/15 10:14:06;;;;;;;;;;;18.10;69.20;;;;;;5001432;28;19917;-87
2023/09/15 10:16:32;;;;;;;;;;;18.10;68.80;;;;;;5030030;28;20375;-85
2023/09/15 10:18:58;;;;;;;;;;;18.20;68.10;;;;;;5029469;28;19924;-86
2023/09/15 10:21:24;;;;;;;;;;;18.30;67.70;;;;;;5011497;28;19941;-87
2023/09/15 10:23:57;;;;;;;;;;;18.40;66.10;;;;;;5020225;28;20014;-86
2023/09/15 10:26:24;;;;;;;;;;;18.50;69.40;;;;;;5022727;28;19913;-87
2023/09/15 10:28:51;;;;;;;;;;;18.50;69.70;;;;;;5024755;28;20382;-87
2023/09/15 10:31:17;;;;;;;;;;;18.50;67.20;;;;;;5021654;28;19920;-85
2023/09/15 10:33:43;;;;;;;;;;;18.50;67.90;;;;;;5007501;28;20007;-85
2023/09/15 10:36:11;;;;;;;;;;;18.50;66.50;;;;;;5006433;28;20493;-85
2023/09/15 10:38:37;;;;;;;;;;;18.60;65.50;;;;;;5002254;28;20386;-85
2023/09/15 10:41:05;;;;;;;;;;;18.60;66.70;;;;;;4993117;28;19923;-86
2023/09/15 10:43:31;;;;;;;;;;;18.60;67.70;;;;;;5012291;28;19914;-87
2023/09/15 10:45:57;;;;;;;;;;;18.70;62.80;;;;;;4994136;28;19920;-84
2023/09/15 10:48:24;;;;;;;;;;;19.00;61.10;;;;;;4999439;28;20401;-87
2023/09/15 10:51:04;;;;;;;;;;;19.00;61.10;;;;;;4995297;28;19913;-86
2023/09/15 10:53:40;;;;;;;;;;;18.80;64.30;;;;;;5012573;28;19960;-87
2023/09/15 10:56:05;;;;;;;;;;;18.80;62.70;;;;;;5013266;28;20425;-86
2023/09/15 10:58:31;;;;;;;;;;;18.90;63.20;;;;;;4996432;28;19996;-88
2023/09/15 11:01:00;;;;;;;;;;;19.00;63.40;;;;;;5012472;28;20379;-87
2023/09/15 11:03:26;;;;;;;;;;;18.90;65.20;;;;;;4995480;28;19918;-86
2023/09/15 11:05:52;;;;;;;;;;;18.90;66.60;;;;;;4993970;28;20394;-87
2023/09/15 11:08:18;;;;;;;;;;;19.20;62.80;;;;;;5008907;28;19914;-87
2023/09/15 11:14:00;;;;;;;;;;;19.30;62.50;;;;;;5014755;28;19913;-87
2023/09/15 11:16:27;;;;;;;;;;;19.40;64.90;;;;;;5010180;28;19926;-88
2023/09/15 11:18:53;;;;;;;;;;;19.40;66.10;;;;;;4993336;28;20011;-87
2023/09/15 11:21:18;;;;;;;;;;;19.40;62.20;;;;;;5002537;28;19991;-87
2023/09/15 11:23:45;;;;;;;;;;;19.40;60.00;;;;;;5015591;28;19917;-87
2023/09/15 11:26:11;;;;;;;;;;;19.50;62.00;;;;;;5016597;28;19909;-87
2023/09/15 11:28:37;;;;;;;;;;;19.40;62.90;;;;;;4994827;28;20363;-87
2023/09/15 11:31:05;;;;;;;;;;;19.50;60.60;;;;;;4993394;28;19913;-86
2023/09/15 11:33:31;;;;;;;;;;;19.40;59.90;;;;;;5001485;28;20001;-86
2023/09/15 11:35:57;;;;;;;;;;;19.30;59.40;;;;;;4991409;28;20444;-87
2023/09/15 11:38:23;;;;;;;;;;;19.50;59.20;;;;;;4991101;28;20059;-89
2023/09/15 11:40:49;;;;;;;;;;;19.50;58.20;;;;;;4994007;28;19917;-87
2023/09/15 11:43:15;;;;;;;;;;;19.50;58.80;;;;;;5001681;28;19921;-88
2023/09/15 11:45:41;;;;;;;;;;;19.40;60.40;;;;;;5004741;28;19921;-88
2023/09/15 11:48:06;;;;;;;;;;;19.60;61.10;;;;;;5002625;28;19920;-87
2023/09/15 11:50:32;;;;;;;;;;;19.70;59.40;;;;;;4995083;28;20000;-87
2023/09/15 11:52:58;;;;;;;;;;;19.60;61.30;;;;;;5023288;28;19917;-88
2023/09/15 11:55:24;;;;;;;;;;;19.50;62.50;;;;;;5027354;28;19916;-86
2023/09/15 11:57:52;;;;;;;;;;;19.50;63.20;;;;;;5006123;28;19919;-85
2023/09/15 12:00:19;;;;;;;;;;;19.50;62.40;;;;;;4998348;28;20020;-88
2023/09/15 12:02:46;;;;;;;;;;;19.50;62.20;;;;;;4996081;28;19948;-86
2023/09/15 12:05:13;;;;;;;;;;;19.50;60.30;;;;;;4993381;28;19914;-86
2023/09/15 12:07:39;;;;;;;;;;;19.50;60.00;;;;;;5011130;28;19913;-86
2023/09/15 12:10:05;;;;;;;;;;;19.50;59.70;;;;;;5025534;28;20371;-87
2023/09/15 12:12:31;;;;;;;;;;;19.60;62.30;;;;;;5030410;28;19913;-86
2023/09/15 12:15:01;;;;;;;;;;;19.60;63.40;;;;;;4998884;28;19966;-88
2023/09/15 12:17:29;;;;;;;;;;;19.60;62.80;;;;;;5020155;28;19917;-88
2023/09/15 12:19:59;;;;;;;;;;;19.70;61.30;;;;;;4992990;28;20000;-86
2023/09/15 12:22:37;;;;;;;;;;;19.80;62.70;;;;;;5018798;28;19914;-88
2023/09/15 12:25:02;;;;;;;;;;;19.80;62.50;;;;;;5016100;28;19967;-87
2023/09/15 12:27:28;;;;;;;;;;;20.00;59.80;;;;;;4987886;28;19955;-86
2023/09/15 12:29:56;;;;;;;;;;;20.00;61.80;;;;;;5001671;28;19916;-86
2023/09/15 12:32:28;;;;;;;;;;;20.20;63.90;;;;;;4993097;28;20380;-84
2023/09/15 12:34:54;;;;;;;;;;;20.30;63.00;;;;;;4985370;28;20291;-83
2023/09/15 12:37:19;;;;;;;;;;;20.20;63.10;;;;;;4994236;28;19914;-84
2023/09/15 12:39:44;;;;;;;;;;;20.10;64.60;;;;;;4996544;28;19960;-85
2023/09/15 12:42:10;;;;;;;;;;;20.10;64.10;;;;;;5007440;28;19968;-84
2023/09/15 12:44:35;;;;;;;;;;;20.10;64.20;;;;;;5013734;28;19917;-83
2023/09/15 12:47:03;;;;;;;;;;;20.10;66.00;;;;;;4992256;28;19910;-83
2023/09/15 12:49:29;;;;;;;;;;;20.00;65.80;;;;;;5026495;28;19926;-83
2023/09/15 12:51:54;;;;;;;;;;;20.10;63.00;;;;;;4998768;28;19921;-84
2023/09/15 12:54:22;;;;;;;;;;;20.10;63.60;;;;;;5001492;28;19967;-84
2023/09/15 12:56:52;;;;;;;;;;;20.20;62.00;;;;;;5028786;28;19924;-84
2023/09/15 12:59:23;;;;;;;;;;;20.20;61.40;;;;;;4993936;28;19921;-84
2023/09/15 13:01:49;;;;;;;;;;;20.10;62.60;;;;;;4993904;28;19925;-84
2023/09/15 13:04:14;;;;;;;;;;;20.40;61.10;;;;;;5002133;28;19917;-83
2023/09/15 13:06:40;;;;;;;;;;;20.40;61.60;;;;;;5028641;28;19920;-85
2023/09/15 13:09:05;;;;;;;;;;;20.60;61.20;;;;;;4997043;28;19961;-84
2023/09/15 13:11:31;;;;;;;;;;;20.50;61.70;;;;;;4991000;28;19957;-86
2023/09/15 13:13:57;;;;;;;;;;;20.50;60.50;;;;;;5010477;28;19937;-84
2023/09/15 13:16:23;;;;;;;;;;;20.50;58.80;;;;;;4999472;28;20381;-83
2023/09/15 13:18:48;;;;;;;;;;;20.60;60.90;;;;;;5019383;28;19917;-84
2023/09/15 13:21:14;;;;;;;;;;;20.60;61.30;;;;;;5026927;28;19928;-84
2023/09/15 13:23:39;;;;;;;;;;;20.70;62.00;;;;;;5254464;23;20010;-81
2023/09/15 13:26:05;;;;;;;;;;;20.50;62.20;;;;;;4993750;28;21279;-80
2023/09/15 13:28:33;;;;;;;;;;;20.50;61.80;;;;;;5016283;28;19921;-84
2023/09/15 13:31:00;;;;;;;;;;;20.50;61.90;;;;;;5017799;28;19913;-84
2023/09/15 13:33:26;;;;;;;;;;;20.60;59.50;;;;;;5018723;28;19971;-86
2023/09/15 13:35:51;;;;;;;;;;;20.60;58.70;;;;;;5026021;28;20003;-86
2023/09/15 13:38:17;;;;;;;;;;;20.60;59.90;;;;;;5026882;28;19921;-85
2023/09/15 13:40:45;;;;;;;;;;;20.60;60.50;;;;;;5012423;28;19914;-86
2023/09/15 13:43:11;;;;;;;;;;;20.90;55.80;;;;;;5010535;28;19956;-85
2023/09/15 13:45:38;;;;;;;;;;;21.00;57.70;;;;;;5022500;28;19959;-84
2023/09/15 13:48:06;;;;;;;;;;;21.10;59.20;;;;;;5008233;28;19914;-85
2023/09/15 13:50:32;;;;;;;;;;;21.00;59.60;;;;;;5008561;28;20405;-85
2023/09/15 13:52:57;;;;;;;;;;;21.00;58.10;;;;;;5007200;28;19913;-85
2023/09/15 13:55:23;;;;;;;;;;;21.30;54.80;;;;;;5010423;28;19913;-85
2023/09/15 13:57:48;;;;;;;;;;;21.20;55.90;;;;;;5004439;28;20371;-85
2023/09/15 14:00:14;;;;;;;;;;;21.10;57.50;;;;;;5006553;28;19949;-86
2023/09/15 14:02:41;;;;;;;;;;;21.00;58.70;;;;;;5008098;28;19921;-84
2023/09/15 14:05:07;;;;;;;;;;;21.00;59.50;;;;;;5004332;28;20342;-86
2023/09/15 14:07:33;;;;;;;;;;;20.90;59.00;;;;;;5017035;28;19920;-84
2023/09/15 14:09:58;;;;;;;;;;;21.00;58.80;;;;;;5017020;28;19913;-84
2023/09/15 14:12:24;;;;;;;;;;;21.10;60.10;;;;;;5014847;28;19920;-83
2023/09/15 14:14:49;;;;;;;;;;;21.00;59.70;;;;;;5015466;28;19914;-84
2023/09/15 14:17:15;;;;;;;;;;;20.90;60.20;;;;;;5009263;28;19967;-84